Archival Weather

Václav Havel Intl Apt

Prague, Czechia (LKPR)

Report from: Friday, May 26, 2023 4:00 PM CEST
Current time: Sunday, July 14, 2024 1:37 PM CEST

Current weather – Weather history – Daily summaries
Weather forecast

Temperature19.0°C (66.2°F)
Dew point8.0°C (46.4°F)
Winds 7 kts (3.6 m/s, 8.1 mph) Vrb
Winds variableWinds variable from North-Northwest (330°) to Northeast (50°)
Clouds Sky clear
Altimeter30.24 in.Hg (1024 mB)
Relative humidity49 %
Density altitude263 ft. (80 m)
Remarks Ceiling and visibility OK
No significant changes expected in the next two hours
Flight conditions Visual Meteorological Conditions
Raw dataLKPR 261400Z 01007KT 330V050 CAVOK 19/08 Q1024 NOSIG
An error has occurred. This application may no longer respond until reloaded. Reload 🗙